Stations météo

Publicité
Metz-Frescaty, France (7090): Température de l'air & dewpoint: 28.05.2020 01:00:00 - 03.06.2020 01:00:00 (CEST)Metz-Frescaty, France (7090): Température de l'air -20cm: 28.05.2020 01:00:00 - 03.06.2020 01:00:00 (CEST)Metz-Frescaty, France (7090): Vitesse du vent & gusts: 28.05.2020 01:00:00 - 03.06.2020 01:00:00 (CEST)Metz-Frescaty, France (7090): Direction du vent: 28.05.2020 01:00:00 - 03.06.2020 01:00:00 (CEST)Metz-Frescaty, France (7090): Quantités de précipitations: 28.05.2020 01:00:00 - 03.06.2020 01:00:00 (CEST)
Date & Time tt [°C] td [°C] tt -20cm [°C] ff [km/h] ff [knt] fx [km/h] fx [knt] dd rr [mm]
03.06.2020 01:00:00 14,1 9,9 16,7 0 0 5 3 N 0,0
03.06.2020 00:00:00 15,4 10,6 16,9 0 0 4 2 N 0,0
02.06.2020 23:00:00 17,2 9,6 16,9 3 2 8 4 WNW 0,0
02.06.2020 22:00:00 19,3 10,0 16,9 5 3 11 6 NW 0,0
02.06.2020 21:00:00 23,1 9,8 16,7 5 3 11 6 WNW 0,0
02.06.2020 20:00:00 26,9 7,9 16,7 4 2 10 6 NW 0,0
02.06.2020 19:00:00 27,8 7,6 16,7 8 4 16 8 N 0,0
02.06.2020 18:00:00 29,0 8,6 16,4 3 2 15 8 W 0,0
02.06.2020 17:00:00 28,2 7,4 16,2 6 4 15 8 SSE 0,0
02.06.2020 16:00:00 27,9 7,7 15,9 9 5 16 8 SSW 0,0
02.06.2020 15:00:00 27,9 8,7 15,7 5 3 21 11 SE 0,0
02.06.2020 14:00:00 26,7 8,2 15,4 8 5 20 11 ESE 0,0
02.06.2020 13:00:00 26,6 8,1 15,2 5 3 19 10 ENE 0,0
02.06.2020 12:00:00 - - - - - - - - -
02.06.2020 11:00:00 - - - - - - - - -
02.06.2020 10:00:00 - - - - - - - - -
02.06.2020 09:00:00 - - - - - - - - -
02.06.2020 08:00:00 17,1 9,5 15,2 11 6 17 9 NNE 0,0
02.06.2020 07:00:00 15,0 9,6 15,2 7 4 11 6 NNE 0,0
02.06.2020 06:00:00 10,8 8,4 15,4 0 0 3 2 N 0,0
02.06.2020 05:00:00 11,2 8,6 15,5 0 0 6 3 N 0,0
02.06.2020 04:00:00 11,7 8,4 15,7 2 1 5 3 NNW 0,0
02.06.2020 03:00:00 11,9 8,4 15,7 0 0 8 4 N 0,0
02.06.2020 02:00:00 13,2 9,1 15,7 2 1 4 2 WNW 0,0
02.06.2020 01:00:00 14,1 9,3 15,9 0 0 9 5 N 0,0
02.06.2020 00:00:00 15,3 9,4 16,0 6 3 8 5 NW 0,0
01.06.2020 23:00:00 18,2 9,3 16,0 6 3 14 7 NE 0,0
01.06.2020 22:00:00 19,6 8,9 16,0 9 5 13 7 NE 0,0
01.06.2020 21:00:00 22,5 7,5 16,0 7 4 16 9 E 0,0
01.06.2020 20:00:00 24,7 7,8 15,9 15 8 23 12 ENE 0,0
01.06.2020 19:00:00 25,7 6,3 15,7 15 8 29 16 E 0,0
01.06.2020 18:00:00 25,9 7,0 15,7 16 9 36 19 E 0,0
01.06.2020 17:00:00 26,4 8,4 15,5 15 8 35 19 ENE 0,0
01.06.2020 16:00:00 26,2 9,5 15,2 18 10 37 20 E 0,0
01.06.2020 15:00:00 25,7 9,1 15,0 22 12 39 21 E 0,0
01.06.2020 14:00:00 25,1 10,2 14,9 25 13 41 22 E 0,0
01.06.2020 13:00:00 23,9 9,8 14,7 22 12 39 21 E 0,0
01.06.2020 12:00:00 22,4 10,2 14,7 22 12 37 20 E 0,0
01.06.2020 11:00:00 20,9 8,8 14,7 20 11 39 21 E 0,0
01.06.2020 10:00:00 19,1 8,1 14,5 19 10 32 17 E 0,0
01.06.2020 09:00:00 17,4 8,0 14,7 17 9 31 17 ENE 0,0
01.06.2020 08:00:00 15,5 7,3 14,7 14 8 22 12 NNE 0,0
01.06.2020 07:00:00 13,7 6,8 14,7 9 5 14 7 NNE 0,0
01.06.2020 06:00:00 11,5 5,8 14,7 10 5 14 8 NNE 0,0
01.06.2020 05:00:00 11,6 5,5 14,9 7 4 11 6 NNE 0,0
01.06.2020 04:00:00 12,4 5,5 15,0 5 3 13 7 N 0,0
01.06.2020 03:00:00 12,8 6,2 15,0 6 3 11 6 N 0,0
01.06.2020 02:00:00 13,1 6,2 15,2 5 3 18 10 N 0,0
01.06.2020 01:00:00 13,5 6,1 15,2 11 6 16 9 NE 0,0
01.06.2020 00:00:00 14,0 6,4 15,4 10 5 17 9 NE 0,0
31.05.2020 23:00:00 14,3 5,9 15,4 10 5 14 8 ENE 0,0
31.05.2020 22:00:00 15,5 6,0 15,4 7 4 19 10 E 0,0
31.05.2020 21:00:00 17,9 5,5 15,4 9 5 31 17 E 0,0
31.05.2020 20:00:00 19,6 5,3 15,4 22 12 37 20 ENE 0,0
31.05.2020 19:00:00 21,2 4,7 15,2 13 7 31 17 E 0,0
31.05.2020 18:00:00 21,4 4,5 15,2 20 11 35 19 ENE 0,0
31.05.2020 17:00:00 22,0 5,0 15,0 18 10 42 23 ENE 0,0
31.05.2020 16:00:00 21,1 5,0 14,9 15 8 44 24 E 0,0
31.05.2020 15:00:00 20,8 5,6 14,7 22 12 40 22 NE 0,0
31.05.2020 14:00:00 19,7 5,0 14,7 22 12 44 24 NE 0,0
31.05.2020 13:00:00 19,5 5,5 14,5 18 10 37 20 E 0,0
31.05.2020 12:00:00 19,0 4,7 14,4 18 10 34 18 NE 0,0
31.05.2020 11:00:00 18,3 5,2 14,2 19 10 31 17 E 0,0
31.05.2020 10:00:00 17,1 4,7 14,2 21 12 31 17 ENE 0,0
31.05.2020 09:00:00 15,6 4,9 14,4 14 7 28 15 ENE 0,0
31.05.2020 08:00:00 13,4 5,3 14,5 10 5 18 10 NNE 0,0
31.05.2020 07:00:00 11,4 4,8 14,7 11 6 16 8 NNE 0,0
31.05.2020 06:00:00 7,9 4,1 14,7 4 2 7 4 N 0,0
31.05.2020 05:00:00 7,8 4,0 14,9 3 2 6 3 NNW 0,0
31.05.2020 04:00:00 8,8 3,8 15,0 0 0 3 1 N 0,0
31.05.2020 03:00:00 9,2 4,6 15,2 0 0 6 3 N 0,0
31.05.2020 02:00:00 11,1 3,4 15,2 6 3 11 6 E 0,0
31.05.2020 01:00:00 11,2 4,2 15,2 0 0 10 6 N 0,0
31.05.2020 00:00:00 13,7 3,5 15,4 6 4 16 9 E 0,0
30.05.2020 23:00:00 15,1 3,2 15,5 10 5 22 12 E 0,0
30.05.2020 22:00:00 16,6 2,9 15,5 13 7 27 14 ENE 0,0
30.05.2020 21:00:00 18,5 2,7 15,5 17 9 30 16 ENE 0,0
30.05.2020 20:00:00 20,3 3,5 15,5 23 13 40 22 E 0,0
30.05.2020 19:00:00 21,2 3,8 15,4 26 14 40 22 E 0,0
30.05.2020 18:00:00 21,7 3,4 15,2 25 13 40 22 ENE 0,0
30.05.2020 17:00:00 22,2 3,8 15,2 22 12 41 22 ENE 0,0
30.05.2020 16:00:00 22,2 5,2 15,0 19 10 - - E 0,0
30.05.2020 15:00:00 20,9 4,9 14,9 22 12 37 20 ENE 0,0
30.05.2020 14:00:00 21,4 4,9 14,7 21 11 39 21 ENE 0,0
30.05.2020 13:00:00 21,0 5,3 14,7 21 11 45 25 ENE 0,0
30.05.2020 12:00:00 20,7 5,5 14,5 19 10 39 21 ENE 0,0
30.05.2020 11:00:00 19,4 6,5 14,5 18 10 31 17 NE 0,0
30.05.2020 10:00:00 17,7 6,5 14,5 13 7 23 13 ENE 0,0
30.05.2020 09:00:00 16,1 6,0 14,7 13 7 22 12 NNE 0,0
30.05.2020 08:00:00 14,3 5,6 14,7 10 6 17 9 NNE 0,0
30.05.2020 07:00:00 12,6 4,8 14,7 5 3 10 5 N 0,0
30.05.2020 06:00:00 9,8 4,4 14,9 4 2 8 5 N 0,0
30.05.2020 05:00:00 9,2 4,4 15,0 3 2 12 7 NNW 0,0
30.05.2020 04:00:00 11,4 4,1 15,0 6 3 11 6 NNE 0,0
30.05.2020 03:00:00 11,4 4,6 15,2 5 3 10 5 N 0,0
30.05.2020 02:00:00 11,5 4,7 15,2 4 2 11 6 N 0,0
30.05.2020 01:00:00 12,8 4,7 15,4 9 5 13 7 NNE 0,0
30.05.2020 00:00:00 14,5 4,2 15,5 10 5 19 10 ENE 0,0
29.05.2020 23:00:00 16,2 3,9 15,5 13 7 22 12 ENE 0,0
29.05.2020 22:00:00 17,0 4,0 15,5 11 6 27 15 ENE 0,0
29.05.2020 21:00:00 18,9 3,9 15,5 18 10 32 17 ENE 0,0
29.05.2020 20:00:00 20,5 3,7 15,5 19 11 32 18 ENE 0,0
29.05.2020 19:00:00 21,5 5,0 15,4 22 12 40 21 NE 0,0
29.05.2020 18:00:00 21,9 5,3 15,2 22 12 46 25 ENE 0,0
29.05.2020 17:00:00 22,1 4,6 15,2 17 9 37 20 ENE 0,0
29.05.2020 16:00:00 22,2 5,6 15,0 11 6 34 18 ENE 0,0
29.05.2020 15:00:00 21,6 5,5 14,9 21 11 33 18 ENE 0,0
29.05.2020 14:00:00 20,8 5,6 14,7 17 9 37 20 ENE 0,0
29.05.2020 13:00:00 20,4 5,6 14,7 20 11 35 19 E 0,0
29.05.2020 12:00:00 19,8 5,4 14,5 21 11 37 20 E 0,0
29.05.2020 11:00:00 19,3 5,7 14,5 18 10 40 21 E 0,0
29.05.2020 10:00:00 17,5 4,4 14,5 21 11 35 19 ENE 0,0
29.05.2020 09:00:00 16,0 5,9 14,5 17 9 25 14 ENE 0,0
29.05.2020 08:00:00 14,0 5,1 14,7 9 5 14 8 NNE 0,0
29.05.2020 07:00:00 11,4 4,1 14,7 5 3 11 6 N 0,0
29.05.2020 06:00:00 8,6 3,8 14,9 2 1 11 6 NNW 0,0
29.05.2020 05:00:00 10,4 3,2 15,0 7 4 12 6 N 0,0
29.05.2020 04:00:00 10,6 2,9 15,0 7 4 13 7 NNE 0,0
29.05.2020 03:00:00 11,4 2,9 15,2 6 3 12 7 NNE 0,0
29.05.2020 02:00:00 11,9 3,1 15,4 7 4 16 8 NNE 0,0
29.05.2020 01:00:00 12,0 4,0 15,5 9 5 13 7 NNE 0,0
29.05.2020 00:00:00 12,1 4,6 15,7 2 1 11 6 N 0,0
28.05.2020 23:00:00 14,4 4,7 15,7 2 1 16 8 NW 0,0
28.05.2020 22:00:00 16,0 3,4 15,7 10 6 16 8 ENE 0,0
28.05.2020 21:00:00 19,0 3,2 15,7 12 6 26 14 ENE 0,0
28.05.2020 20:00:00 21,2 2,9 15,7 16 9 30 16 ENE 0,0
28.05.2020 19:00:00 22,4 3,0 15,7 17 9 31 17 ENE 0,0
28.05.2020 18:00:00 22,8 3,8 15,5 15 8 36 19 ENE 0,0
28.05.2020 17:00:00 23,1 6,4 15,4 18 10 34 18 ENE 0,0
28.05.2020 16:00:00 23,2 6,0 15,2 19 10 43 23 ENE 0,0
28.05.2020 15:00:00 22,7 7,6 15,2 19 10 32 17 NNE 0,0
28.05.2020 14:00:00 21,8 9,7 15,0 15 8 29 15 ENE 0,0
28.05.2020 13:00:00 21,2 10,4 14,9 18 10 29 15 NE 0,0
28.05.2020 12:00:00 20,3 10,4 14,7 17 9 32 17 ENE 0,0
28.05.2020 11:00:00 20,3 11,8 14,7 16 9 29 16 NE 0,0
28.05.2020 10:00:00 18,8 11,4 14,7 16 9 25 14 NE 0,0
28.05.2020 09:00:00 17,3 10,7 14,7 16 9 27 14 NNE 0,0
28.05.2020 08:00:00 16,2 10,1 14,9 12 7 22 12 NNE 0,0
28.05.2020 07:00:00 15,1 9,2 14,9 10 5 20 11 N 0,0
28.05.2020 06:00:00 14,7 8,9 15,0 9 5 24 13 N 0,0
28.05.2020 05:00:00 14,8 8,9 15,0 9 5 22 12 N 0,0
28.05.2020 04:00:00 13,5 8,8 15,2 0 0 15 8 N 0,0
28.05.2020 03:00:00 14,6 9,2 15,2 9 5 16 9 NNE 0,0
28.05.2020 02:00:00 14,9 9,0 15,4 10 5 18 10 NNE 0,0
28.05.2020 01:00:00 14,1 9,1 15,5 3 1 10 6 N 0,0

tt = Température de l'air
td = dewpoint
tt -20cm = Température de l'air -20cm
ff = Vitesse du vent
fx = gusts
dd = Direction du vent
rr = Quantités de précipitations

stations d'obs. à proximité